Time;durP1;ratioP1;P1;durP2;ratioP2;P2;SDS_P1;SDS_P2;PMS_P1;PMS_P2;Temp;Humidity;BMP_temperature;BMP_pressure;BME280_temperature;BME280_humidity;BME280_pressure;Samples;Min_cycle;Max_cycle;Signal;HPM_P1;HPM_P2
2022/12/04 00:00:50;;;;;;;88.22;40.20;;;2.70;98.00;;;;;;5035244;28;20065;-70
2022/12/04 00:03:16;;;;;;;88.20;42.30;;;2.70;98.20;;;;;;5036040;28;20027;-71
2022/12/04 00:05:41;;;;;;;90.30;43.17;;;2.70;98.20;;;;;;5036274;28;20029;-70
2022/12/04 00:08:07;;;;;;;88.93;41.20;;;2.70;98.10;;;;;;5034978;28;20366;-71
2022/12/04 00:10:33;;;;;;;90.53;44.42;;;2.70;98.10;;;;;;5034376;28;20025;-70
2022/12/04 00:12:58;;;;;;;91.20;43.15;;;2.60;98.00;;;;;;5034327;28;20041;-70
2022/12/04 00:15:24;;;;;;;90.35;42.70;;;2.60;98.30;;;;;;5035579;28;20025;-70
2022/12/04 00:17:50;;;;;;;96.22;43.03;;;2.60;98.50;;;;;;5035484;28;20057;-70
2022/12/04 00:20:15;;;;;;;83.68;40.67;;;2.50;98.50;;;;;;5035493;28;20037;-70
2022/12/04 00:22:41;;;;;;;85.22;41.47;;;2.50;98.60;;;;;;5035486;28;20083;-71
2022/12/04 00:25:07;;;;;;;86.53;43.45;;;2.60;98.50;;;;;;5034445;28;20347;-70
2022/12/04 00:27:32;;;;;;;89.25;42.25;;;2.60;98.40;;;;;;5036135;28;20034;-70
2022/12/04 00:29:58;;;;;;;92.15;43.60;;;2.60;98.40;;;;;;5035505;28;20025;-70
2022/12/04 00:32:24;;;;;;;84.47;41.08;;;2.70;98.30;;;;;;5035203;28;20037;-70
2022/12/04 00:34:52;;;;;;;89.30;42.20;;;2.60;98.30;;;;;;5035156;28;20036;-70
2022/12/04 00:37:18;;;;;;;91.90;41.78;;;2.60;98.30;;;;;;5017383;28;20041;-70
2022/12/04 00:39:43;;;;;;;89.53;42.72;;;2.60;98.60;;;;;;5034862;28;20033;-70
2022/12/04 00:42:09;;;;;;;86.30;41.33;;;2.60;98.60;;;;;;5035376;28;20520;-71
2022/12/04 00:44:35;;;;;;;92.75;43.55;;;2.60;98.70;;;;;;5033692;28;20032;-70
2022/12/04 00:47:00;;;;;;;87.03;41.55;;;2.40;98.60;;;;;;5017217;28;20119;-70
2022/12/04 00:49:26;;;;;;;94.22;42.53;;;2.40;99.00;;;;;;5034973;28;20033;-70
2022/12/04 00:51:51;;;;;;;89.70;43.30;;;2.50;99.00;;;;;;5034459;28;20034;-70
2022/12/04 00:54:17;;;;;;;93.57;43.22;;;2.50;98.70;;;;;;5035223;28;20062;-71
2022/12/04 00:56:43;;;;;;;85.30;41.45;;;2.40;98.90;;;;;;5033500;28;20052;-70
2022/12/04 00:59:09;;;;;;;91.95;41.75;;;2.40;99.10;;;;;;5034687;28;20030;-71
2022/12/04 01:01:35;;;;;;;85.07;41.50;;;2.40;99.10;;;;;;5016931;28;20335;-71
2022/12/04 01:04:01;;;;;;;89.35;44.08;;;2.30;99.30;;;;;;5034787;28;20040;-70
2022/12/04 01:06:32;;;;;;;85.63;42.50;;;2.40;99.20;;;;;;5034640;28;20038;-70
2022/12/04 01:09:00;;;;;;;93.20;44.63;;;2.50;99.10;;;;;;5034922;28;20030;-71
2022/12/04 01:11:27;;;;;;;88.95;42.13;;;2.50;98.70;;;;;;5034672;28;20057;-70
2022/12/04 01:13:52;;;;;;;87.85;41.47;;;2.30;99.10;;;;;;5034738;28;20037;-70
2022/12/04 01:16:22;;;;;;;88.20;43.17;;;2.30;99.30;;;;;;5034615;28;20049;-70
2022/12/04 01:18:48;;;;;;;91.07;43.75;;;2.30;99.30;;;;;;5034308;28;20187;-70
2022/12/04 01:21:14;;;;;;;89.60;42.78;;;2.30;99.20;;;;;;5033136;28;20029;-70
2022/12/04 01:23:40;;;;;;;95.43;43.35;;;2.30;99.20;;;;;;5033034;28;20026;-70
2022/12/04 01:26:06;;;;;;;90.85;44.25;;;2.30;99.30;;;;;;5034595;28;20068;-70
2022/12/04 01:28:32;;;;;;;89.40;43.85;;;2.30;99.40;;;;;;5033010;28;20108;-70
2022/12/04 01:31:02;;;;;;;85.68;42.58;;;2.40;99.30;;;;;;5016262;28;20465;-70
2022/12/04 01:33:29;;;;;;;91.93;42.63;;;2.30;99.30;;;;;;5034455;28;20029;-70
2022/12/04 01:35:56;;;;;;;94.32;43.80;;;2.30;99.40;;;;;;5034281;28;20454;-70
2022/12/04 01:38:22;;;;;;;90.05;42.58;;;2.40;99.30;;;;;;5033801;28;20119;-70
2022/12/04 01:40:48;;;;;;;92.28;43.28;;;2.30;99.30;;;;;;5034214;28;20118;-70
2022/12/04 01:43:14;;;;;;;87.43;42.15;;;2.30;99.40;;;;;;5033665;28;20053;-71
2022/12/04 01:45:44;;;;;;;85.18;42.40;;;2.40;99.50;;;;;;5033960;28;20030;-70
2022/12/04 01:48:26;;;;;;;87.10;42.13;;;2.50;99.50;;;;;;5033924;28;20030;-70
2022/12/04 01:50:57;;;;;;;91.32;43.00;;;2.60;99.20;;;;;;5033639;28;20108;-70
2022/12/04 01:53:23;;;;;;;85.82;41.17;;;2.70;98.90;;;;;;5033721;28;20045;-70
2022/12/04 01:55:49;;;;;;;89.28;42.67;;;2.60;98.80;;;;;;5033492;28;20037;-71
2022/12/04 01:58:19;;;;;;;86.15;41.65;;;2.70;98.80;;;;;;5033662;28;20365;-71
2022/12/04 02:00:48;;;;;;;81.40;40.53;;;2.60;98.80;;;;;;5032890;28;20039;-70
2022/12/04 02:03:13;;;;;;;91.13;43.80;;;2.60;99.00;;;;;;5032937;28;20072;-71
2022/12/04 02:05:39;;;;;;;89.55;43.88;;;2.60;98.90;;;;;;5033623;28;20061;-70
2022/12/04 02:08:05;;;;;;;89.03;43.58;;;2.50;99.00;;;;;;5033871;28;20434;-71
2022/12/04 02:10:42;;;;;;;90.20;42.60;;;2.50;99.20;;;;;;5033371;28;20117;-71
2022/12/04 02:13:25;;;;;;;88.30;42.90;;;2.50;99.20;;;;;;5016234;28;20108;-71
2022/12/04 02:16:06;;;;;;;87.90;44.15;;;2.50;99.20;;;;;;5015882;28;20029;-71
2022/12/04 02:18:41;;;;;;;91.25;42.60;;;2.40;99.20;;;;;;5033133;28;20475;-71
2022/12/04 02:21:17;;;;;;;93.63;45.55;;;2.50;99.50;;;;;;5033457;28;20029;-70
2022/12/04 02:23:59;;;;;;;90.07;44.05;;;2.50;99.20;;;;;;5034206;28;20033;-79
2022/12/04 02:26:55;;;;;;;89.35;42.70;;;2.40;99.30;;;;;;5032843;28;20044;-79
2022/12/04 02:29:20;;;;;;;89.57;42.22;;;2.40;99.50;;;;;;5034158;28;20060;-80
2022/12/04 02:31:58;;;;;;;92.13;42.42;;;2.50;99.40;;;;;;5033505;28;20057;-79
2022/12/04 02:34:33;;;;;;;85.95;41.80;;;2.60;99.30;;;;;;5032452;28;20025;-80
2022/12/04 02:37:08;;;;;;;86.30;43.83;;;2.50;99.40;;;;;;5016211;28;20033;-79
2022/12/04 02:39:50;;;;;;;89.97;43.83;;;2.50;99.20;;;;;;5016106;28;20033;-80
2022/12/04 02:42:39;;;;;;;86.95;44.08;;;2.40;99.40;;;;;;5015921;28;20029;-80
2022/12/04 02:45:09;;;;;;;92.05;44.92;;;2.40;99.40;;;;;;5034360;28;20036;-79
2022/12/04 02:47:36;;;;;;;92.88;44.42;;;2.40;99.50;;;;;;5033744;28;20040;-81
2022/12/04 02:50:08;;;;;;;99.07;45.28;;;2.40;99.40;;;;;;5034122;28;20450;-80
2022/12/04 02:52:46;;;;;;;91.43;43.53;;;2.40;99.40;;;;;;5033547;28;20124;-80
2022/12/04 02:55:23;;;;;;;89.60;43.35;;;2.50;99.50;;;;;;5031906;28;20053;-80
2022/12/04 02:57:52;;;;;;;86.70;43.83;;;2.70;99.50;;;;;;5033807;28;20030;-79
2022/12/04 03:00:18;;;;;;;87.72;45.10;;;2.70;99.10;;;;;;5033737;28;20104;-79
2022/12/04 03:03:12;;;;;;;90.13;41.72;;;2.60;99.10;;;;;;5032242;28;20060;-79
2022/12/04 03:05:46;;;;;;;93.30;43.88;;;2.70;99.10;;;;;;5034046;28;20034;-80
2022/12/04 03:08:21;;;;;;;93.65;45.47;;;2.70;99.00;;;;;;5033510;28;20041;-80
2022/12/04 03:10:55;;;;;;;93.28;44.75;;;2.40;99.30;;;;;;5033067;28;20075;-80
2022/12/04 03:13:27;;;;;;;90.18;43.42;;;2.40;99.80;;;;;;5015881;28;20025;-79
2022/12/04 03:16:04;;;;;;;88.28;43.55;;;2.30;99.80;;;;;;5037007;28;20025;-79
2022/12/04 03:18:58;;;;;;;90.93;43.28;;;2.30;99.90;;;;;;5037315;28;20112;-80
2022/12/04 03:21:28;;;;;;;86.88;41.45;;;2.30;99.90;;;;;;5019420;28;20029;-79
2022/12/04 03:24:15;;;;;;;96.25;45.10;;;2.40;99.80;;;;;;5035609;28;20121;-80
2022/12/04 03:26:49;;;;;;;94.00;44.25;;;2.30;99.80;;;;;;5037519;28;20029;-79
2022/12/04 03:29:21;;;;;;;89.60;43.83;;;2.30;99.90;;;;;;5036948;28;20056;-79
2022/12/04 03:32:07;;;;;;;85.95;43.20;;;2.30;99.90;;;;;;5019688;28;20032;-78
2022/12/04 03:35:10;;;;;;;92.40;44.15;;;2.30;99.90;;;;;;5036916;28;20076;-79
2022/12/04 03:37:58;;;;;;;89.28;43.35;;;2.30;99.90;;;;;;5018952;28;20478;-79
2022/12/04 03:40:33;;;;;;;89.32;42.67;;;2.40;99.90;;;;;;5008137;28;20037;-79
2022/12/04 03:43:05;;;;;;;90.50;44.33;;;2.50;99.80;;;;;;5035425;28;20029;-79
2022/12/04 03:45:54;;;;;;;83.65;42.58;;;2.40;99.70;;;;;;5019488;28;20385;-79
2022/12/04 03:48:51;;;;;;;86.55;41.40;;;2.20;99.90;;;;;;5036322;28;20057;-78
2022/12/04 03:51:33;;;;;;;86.57;41.42;;;2.30;99.90;;;;;;5036909;28;20021;-79
2022/12/04 03:54:19;;;;;;;87.63;42.67;;;2.50;99.90;;;;;;5036670;28;20056;-79
2022/12/04 03:57:10;;;;;;;86.93;43.00;;;2.60;99.80;;;;;;5036322;28;20129;-79
2022/12/04 03:59:40;;;;;;;86.00;41.58;;;2.50;99.70;;;;;;5019487;28;20355;-78
2022/12/04 04:02:12;;;;;;;89.20;42.00;;;2.40;99.80;;;;;;5036121;28;20099;-79
2022/12/04 04:04:41;;;;;;;84.63;41.03;;;2.30;99.90;;;;;;5019168;28;20025;-79
2022/12/04 04:07:17;;;;;;;87.93;42.72;;;2.40;99.90;;;;;;5036494;28;20052;-79
2022/12/04 04:09:45;;;;;;;84.53;43.22;;;2.50;99.90;;;;;;5035326;28;20032;-79
2022/12/04 04:12:19;;;;;;;86.07;40.90;;;2.50;99.80;;;;;;5018533;28;20028;-79
2022/12/04 04:26:35;;;;;;;90.32;41.33;;;2.60;99.70;;;;;;5035140;28;20048;-78
2022/12/04 04:29:01;;;;;;;83.60;41.85;;;2.60;99.50;;;;;;5036134;28;20116;-78
2022/12/04 04:31:30;;;;;;;88.03;42.97;;;2.60;99.40;;;;;;5017929;28;20116;-79
2022/12/04 04:34:15;;;;;;;86.25;42.13;;;2.60;99.60;;;;;;5034504;28;20029;-79
2022/12/04 04:37:06;;;;;;;83.28;41.53;;;2.60;99.50;;;;;;5035446;28;20055;-79
2022/12/04 04:40:01;;;;;;;84.93;42.17;;;2.70;99.50;;;;;;5035622;28;20036;-79
2022/12/04 04:42:32;;;;;;;80.05;42.13;;;2.70;99.30;;;;;;5017864;28;20032;-79
2022/12/04 04:45:06;;;;;;;81.63;41.00;;;2.80;99.10;;;;;;5018166;28;20034;-79
2022/12/04 04:47:46;;;;;;;;;;;2.80;99.30;;;;;;5035266;28;20036;-79
2022/12/04 04:50:14;;;;;;;83.85;41.85;;;2.70;99.20;;;;;;5017726;28;20291;-79
2022/12/04 04:52:46;;;;;;;91.03;42.75;;;2.50;99.40;;;;;;5035076;28;20071;-79
2022/12/04 04:55:13;;;;;;;87.95;42.90;;;2.40;99.70;;;;;;5017621;28;20095;-79
2022/12/04 04:57:39;;;;;;;84.75;42.15;;;2.40;99.90;;;;;;5017222;28;20045;-79
2022/12/04 05:00:07;;;;;;;80.82;39.95;;;2.30;99.90;;;;;;5034411;28;20037;-79
2022/12/04 05:02:33;;;;;;;87.72;43.67;;;2.30;99.90;;;;;;5017688;28;20053;-80
2022/12/04 05:04:59;;;;;;;85.78;42.80;;;2.30;99.90;;;;;;5017102;28;20037;-79
2022/12/04 05:07:24;;;;;;;85.68;42.50;;;2.30;99.90;;;;;;5017866;28;20044;-79
2022/12/04 05:09:50;;;;;;;87.38;42.95;;;2.30;99.90;;;;;;5035402;28;20025;-79
2022/12/04 05:12:15;;;;;;;84.97;41.67;;;2.40;99.90;;;;;;5033972;28;20030;-79
2022/12/04 05:14:41;;;;;;;90.07;41.38;;;2.40;99.90;;;;;;5033922;28;20038;-79
2022/12/04 05:17:07;;;;;;;83.97;42.05;;;2.40;99.90;;;;;;5017148;28;20041;-79
2022/12/04 05:22:18;;;;;;;90.18;43.22;;;2.40;99.90;;;;;;5035249;28;20045;-79
2022/12/04 05:24:44;;;;;;;81.32;40.13;;;2.20;99.90;;;;;;5017797;28;20033;-79
2022/12/04 05:27:09;;;;;;;78.22;38.83;;;2.20;99.90;;;;;;5000991;28;20480;-79
2022/12/04 05:29:35;;;;;;;81.75;41.08;;;2.30;99.90;;;;;;5018198;28;20404;-79
2022/12/04 05:32:01;;;;;;;83.15;41.60;;;2.30;99.90;;;;;;5017335;28;20026;-79
2022/12/04 05:34:26;;;;;;;78.85;39.13;;;2.30;99.90;;;;;;5016927;28;20029;-78
2022/12/04 05:36:52;;;;;;;83.95;41.50;;;2.20;99.90;;;;;;5032805;28;20045;-78
2022/12/04 05:39:18;;;;;;;79.80;41.75;;;2.30;99.90;;;;;;5033000;28;20041;-79
2022/12/04 05:41:44;;;;;;;80.15;41.70;;;2.30;99.90;;;;;;5034217;28;20029;-78
2022/12/04 05:44:09;;;;;;;85.50;41.78;;;2.30;99.90;;;;;;5033872;28;20462;-78
2022/12/04 05:46:35;;;;;;;82.60;40.10;;;2.40;99.90;;;;;;5017155;28;20105;-78
2022/12/04 05:49:01;;;;;;;78.00;39.85;;;2.50;99.90;;;;;;5016862;28;20458;-78
2022/12/04 05:51:26;;;;;;;74.78;37.60;;;2.40;99.90;;;;;;5034055;28;20037;-80
2022/12/04 05:53:52;;;;;;;80.03;40.00;;;2.50;99.90;;;;;;4996675;28;20089;-79
2022/12/04 05:56:18;;;;;;;82.25;39.35;;;2.40;99.90;;;;;;5013210;28;20145;-79
2022/12/04 05:58:43;;;;;;;81.85;38.80;;;2.40;99.90;;;;;;5013110;28;20057;-78
2022/12/04 06:01:15;;;;;;;76.88;39.33;;;2.40;99.90;;;;;;5013519;28;20108;-79
2022/12/04 06:03:41;;;;;;;79.10;38.60;;;2.50;99.90;;;;;;5014382;28;20108;-79
2022/12/04 06:06:19;;;;;;;78.45;38.85;;;2.50;99.90;;;;;;5014375;28;20053;-78
2022/12/04 06:08:45;;;;;;;80.43;39.88;;;2.50;99.90;;;;;;5029678;28;20038;-79
2022/12/04 06:11:18;;;;;;;77.82;38.22;;;2.40;99.90;;;;;;4997365;28;20034;-80
2022/12/04 06:13:44;;;;;;;83.18;40.13;;;2.50;99.90;;;;;;5014354;28;20030;-79
2022/12/04 06:16:15;;;;;;;82.25;39.75;;;2.30;99.90;;;;;;5012861;28;20087;-80
2022/12/04 06:18:41;;;;;;;79.70;39.47;;;2.30;99.90;;;;;;5029405;28;20071;-79
2022/12/04 06:21:08;;;;;;;73.80;36.63;;;2.40;99.90;;;;;;5012848;28;20030;-79
2022/12/04 06:23:33;;;;;;;73.18;37.17;;;2.40;99.90;;;;;;5013787;28;20038;-79
2022/12/04 06:26:07;;;;;;;77.07;39.20;;;2.50;99.90;;;;;;5012972;28;20037;-80
2022/12/04 06:28:33;;;;;;;;;;;2.50;99.90;;;;;;5014536;28;20025;-78
2022/12/04 06:31:03;;;;;;;78.68;38.50;;;2.40;99.90;;;;;;5014175;28;20285;-79
2022/12/04 06:33:29;;;;;;;78.10;38.40;;;2.30;99.90;;;;;;5013922;28;20030;-79
2022/12/04 06:36:06;;;;;;;76.10;37.55;;;2.40;99.90;;;;;;5013106;28;20026;-79
2022/12/04 06:38:34;;;;;;;78.38;38.28;;;2.50;99.90;;;;;;5029268;28;20030;-79
2022/12/04 06:41:03;;;;;;;78.25;38.05;;;2.40;99.90;;;;;;5012744;28;20037;-79
2022/12/04 06:43:29;;;;;;;78.43;38.70;;;2.50;99.90;;;;;;5014357;28;20026;-79
2022/12/04 06:46:03;;;;;;;76.55;38.13;;;2.50;99.90;;;;;;5014525;28;20026;-79
2022/12/04 06:48:30;;;;;;;76.40;38.63;;;2.60;99.90;;;;;;5014560;28;20026;-79
2022/12/04 06:51:08;;;;;;;71.97;37.33;;;2.60;99.90;;;;;;5032957;28;20026;-79
2022/12/04 06:53:34;;;;;;;78.35;38.30;;;2.60;99.90;;;;;;5029540;28;20057;-80
2022/12/04 06:56:02;;;;;;;83.10;39.47;;;2.60;99.90;;;;;;5020404;28;20432;-79
2022/12/04 06:58:29;;;;;;;78.28;37.90;;;2.60;99.90;;;;;;5038527;28;20053;-79
2022/12/04 07:00:55;;;;;;;69.97;35.88;;;2.50;99.90;;;;;;5003610;28;20026;-79
2022/12/04 07:03:22;;;;;;;69.75;35.38;;;2.50;99.90;;;;;;5020885;28;20025;-80
2022/12/04 07:05:49;;;;;;;79.38;38.58;;;2.40;99.90;;;;;;5037859;28;20131;-79
2022/12/04 07:08:15;;;;;;;78.65;38.17;;;2.50;99.90;;;;;;5037127;28;20523;-80
2022/12/04 07:10:41;;;;;;;77.13;37.47;;;2.50;99.90;;;;;;5037073;28;20032;-78
2022/12/04 07:13:07;;;;;;;77.25;37.40;;;2.40;99.90;;;;;;5019746;28;20029;-79
2022/12/04 07:15:34;;;;;;;76.80;36.53;;;2.40;99.90;;;;;;5019443;28;20040;-79
2022/12/04 07:18:00;;;;;;;72.80;35.25;;;2.40;99.90;;;;;;5019390;28;20492;-79
2022/12/04 07:20:26;;;;;;;76.15;36.30;;;2.60;99.90;;;;;;5036890;28;20033;-80
2022/12/04 07:22:51;;;;;;;78.57;36.97;;;2.70;99.90;;;;;;5037016;28;20022;-80
2022/12/04 07:25:18;;;;;;;72.97;36.28;;;2.70;99.90;;;;;;5037454;28;20471;-79
2022/12/04 07:27:44;;;;;;;70.20;34.67;;;2.70;99.90;;;;;;5037005;28;20080;-80
2022/12/04 07:30:10;;;;;;;77.15;37.28;;;2.70;99.90;;;;;;5018975;28;20032;-79
2022/12/04 07:32:36;;;;;;;70.72;35.10;;;2.80;99.80;;;;;;5019158;28;20030;-79
2022/12/04 07:35:03;;;;;;;71.60;35.67;;;2.70;99.70;;;;;;5019117;28;20462;-79
2022/12/04 07:37:29;;;;;;;70.45;35.35;;;2.70;99.90;;;;;;5019171;28;20065;-78
2022/12/04 07:39:55;;;;;;;70.68;34.38;;;2.60;99.90;;;;;;5018977;28;20067;-79
2022/12/04 07:42:21;;;;;;;70.78;35.35;;;2.60;99.90;;;;;;5018964;28;20095;-81
2022/12/04 07:44:46;;;;;;;70.07;34.25;;;2.60;99.90;;;;;;5003369;28;20378;-77
2022/12/04 07:47:12;;;;;;;77.75;37.15;;;2.80;99.90;;;;;;5037465;28;20068;-73
2022/12/04 07:49:38;;;;;;;72.45;34.70;;;2.90;99.90;;;;;;5036573;28;20121;-82
2022/12/04 07:52:04;;;;;;;70.00;33.92;;;2.80;99.90;;;;;;5035762;28;20029;-74
2022/12/04 07:54:30;;;;;;;60.22;30.67;;;2.80;99.90;;;;;;5015584;28;20089;-74
2022/12/04 07:56:55;;;;;;;66.00;31.33;;;2.90;99.90;;;;;;4999874;28;20509;-74
2022/12/04 07:59:21;;;;;;;61.88;32.22;;;3.10;99.90;;;;;;5015535;28;20034;-74
2022/12/04 08:01:47;;;;;;;65.15;33.90;;;3.30;99.90;;;;;;5015507;28;20462;-73
2022/12/04 08:04:12;;;;;;;69.07;33.92;;;3.30;99.90;;;;;;5017315;28;20037;-74
2022/12/04 08:06:38;;;;;;;65.88;32.78;;;3.20;99.40;;;;;;5016794;28;20038;-73
2022/12/04 08:09:05;;;;;;;67.80;34.60;;;3.20;99.30;;;;;;5015255;28;20040;-75
2022/12/04 08:11:32;;;;;;;62.95;30.98;;;3.10;99.50;;;;;;5016149;28;20022;-73
2022/12/04 08:14:03;;;;;;;63.80;32.90;;;3.20;99.90;;;;;;5016902;28;20029;-73
2022/12/04 08:16:31;;;;;;;68.65;33.55;;;3.30;99.50;;;;;;5015508;28;20478;-75
2022/12/04 08:18:57;;;;;;;62.08;31.45;;;3.30;99.10;;;;;;5016743;28;20026;-79
2022/12/04 08:21:27;;;;;;;61.45;31.80;;;3.10;99.20;;;;;;5015931;28;20080;-73
2022/12/04 08:23:53;;;;;;;70.05;33.47;;;3.20;99.60;;;;;;5016491;28;20025;-72
2022/12/04 08:26:20;;;;;;;68.25;33.78;;;3.20;99.60;;;;;;5015098;28;20029;-74
2022/12/04 08:28:47;;;;;;;65.35;31.65;;;3.20;99.50;;;;;;5016270;28;20029;-74
2022/12/04 08:31:22;;;;;;;61.78;30.15;;;3.30;99.70;;;;;;5014552;28;20474;-74
2022/12/04 08:33:49;;;;;;;66.18;32.67;;;3.40;99.70;;;;;;5031743;28;20040;-74
2022/12/04 08:36:18;;;;;;;64.78;31.50;;;3.30;99.00;;;;;;5031824;28;20030;-73
2022/12/04 08:38:44;;;;;;;61.17;30.90;;;3.20;99.60;;;;;;5015847;28;20042;-76
2022/12/04 08:41:15;;;;;;;64.50;31.05;;;3.30;99.70;;;;;;5031075;28;20113;-77
2022/12/04 08:43:41;;;;;;;58.30;28.85;;;3.40;99.70;;;;;;5015822;28;20022;-78
2022/12/04 08:46:10;;;;;;;59.42;30.17;;;3.40;99.40;;;;;;4999776;28;20509;-82
2022/12/04 08:48:37;;;;;;;61.17;30.83;;;3.50;99.30;;;;;;5015823;28;20030;-74
2022/12/04 08:51:03;;;;;;;66.53;31.77;;;3.60;99.30;;;;;;5014826;28;20348;-74
2022/12/04 08:53:30;;;;;;;61.65;30.85;;;3.60;99.20;;;;;;5014122;28;20104;-73
2022/12/04 08:55:56;;;;;;;66.60;31.38;;;3.50;98.80;;;;;;5015456;28;20026;-73
2022/12/04 08:58:22;;;;;;;58.25;29.48;;;3.50;98.70;;;;;;5014570;28;20111;-73
2022/12/04 09:00:48;;;;;;;61.72;30.50;;;3.50;99.10;;;;;;5014231;28;20077;-73
2022/12/04 09:03:16;;;;;;;57.45;30.02;;;3.60;98.90;;;;;;5014750;28;20574;-73
2022/12/04 09:05:44;;;;;;;57.63;29.98;;;3.60;98.90;;;;;;5014158;28;20109;-74
2022/12/04 09:08:10;;;;;;;62.22;30.40;;;3.70;98.60;;;;;;5015398;28;20041;-76
2022/12/04 09:10:37;;;;;;;63.15;31.15;;;3.70;98.60;;;;;;5015259;28;20030;-76
2022/12/04 09:13:02;;;;;;;62.45;30.80;;;3.50;98.50;;;;;;4997161;28;20029;-74
2022/12/04 09:15:28;;;;;;;58.42;29.35;;;3.40;98.60;;;;;;5014522;28;20044;-73
2022/12/04 09:17:54;;;;;;;53.83;28.40;;;3.30;99.00;;;;;;5014429;28;20121;-73
2022/12/04 09:20:19;;;;;;;57.25;28.65;;;3.20;99.20;;;;;;5015153;28;20030;-76
2022/12/04 09:22:45;;;;;;;54.75;28.10;;;3.20;99.80;;;;;;5017059;28;20037;-73
2022/12/04 09:25:11;;;;;;;58.65;29.77;;;3.40;99.70;;;;;;5015003;28;20032;-73
2022/12/04 09:27:40;;;;;;;59.17;28.90;;;3.30;99.10;;;;;;5014599;28;20034;-73
2022/12/04 09:30:07;;;;;;;54.97;26.63;;;3.30;99.10;;;;;;4997328;28;20034;-74
2022/12/04 09:32:33;;;;;;;54.20;26.25;;;3.20;99.00;;;;;;4997422;28;20034;-74
2022/12/04 09:34:58;;;;;;;51.88;26.10;;;3.20;99.10;;;;;;5013615;28;20037;-74
2022/12/04 09:37:24;;;;;;;50.60;26.08;;;3.20;99.30;;;;;;5013397;28;20136;-74
2022/12/04 09:39:50;;;;;;;51.17;25.17;;;3.20;98.90;;;;;;5013505;28;20034;-74
2022/12/04 09:42:18;;;;;;;46.45;23.25;;;3.20;99.40;;;;;;4997115;28;20038;-74
2022/12/04 09:44:49;;;;;;;45.85;23.48;;;3.30;99.10;;;;;;5014445;28;20058;-74
2022/12/04 09:47:28;;;;;;;46.33;23.83;;;3.30;99.50;;;;;;5014641;28;20116;-73
2022/12/04 09:50:09;;;;;;;43.00;23.17;;;3.40;99.60;;;;;;5013601;28;20332;-74
2022/12/04 09:52:55;;;;;;;43.72;22.23;;;3.50;99.20;;;;;;5017252;28;20042;-81
2022/12/04 09:55:35;;;;;;;44.08;21.25;;;3.50;98.50;;;;;;5035708;28;20131;-81
2022/12/04 09:58:04;;;;;;;43.53;21.95;;;3.40;98.50;;;;;;5017310;28;20401;-73
2022/12/04 10:00:40;;;;;;;38.97;20.63;;;3.40;98.80;;;;;;5032735;28;20113;-73
2022/12/04 10:03:14;;;;;;;38.67;19.45;;;3.30;98.50;;;;;;5016631;28;20035;-73
2022/12/04 10:05:45;;;;;;;;;;;3.30;99.00;;;;;;5034549;28;20029;-73
2022/12/04 10:08:34;;;;;;;38.17;19.45;;;3.30;98.60;;;;;;5034005;28;19905;-74
2022/12/04 10:11:29;;;;;;;34.85;18.02;;;3.20;98.80;;;;;;5034178;28;20472;-73
2022/12/04 10:14:39;;;;;;;33.70;18.02;;;3.20;98.80;;;;;;5033051;28;20033;-73
2022/12/04 10:17:29;;;;;;;38.28;17.50;;;3.20;99.00;;;;;;4957898;28;20055;-82
2022/12/04 10:20:02;;;;;;;38.70;19.02;;;3.20;98.80;;;;;;5046162;28;20017;-80
2022/12/04 10:22:59;;;;;;;36.70;18.40;;;3.30;99.10;;;;;;5043150;28;20033;-81
2022/12/04 10:25:25;;;;;;;33.40;17.40;;;3.30;99.10;;;;;;5040132;28;20021;-80
2022/12/04 10:28:32;;;;;;;34.00;17.65;;;3.40;98.80;;;;;;5025081;28;20022;-80
2022/12/04 10:31:04;;;;;;;32.75;17.30;;;3.40;98.50;;;;;;5013581;28;20435;-81
2022/12/04 10:34:00;;;;;;;30.73;15.57;;;3.40;98.30;;;;;;5045070;28;20033;-80
2022/12/04 10:36:31;;;;;;;32.90;16.75;;;3.40;99.10;;;;;;5045012;28;20069;-73
2022/12/04 10:38:59;;;;;;;30.02;16.25;;;3.50;98.50;;;;;;5015916;28;20538;-74
2022/12/04 10:41:30;;;;;;;34.03;18.05;;;3.50;98.50;;;;;;5033617;28;20026;-74
2022/12/04 10:43:55;;;;;;;32.30;17.23;;;3.40;98.30;;;;;;5033461;28;20081;-73
2022/12/04 10:46:28;;;;;;;28.60;16.38;;;3.20;98.40;;;;;;5033086;28;20113;-75
2022/12/04 10:49:05;;;;;;;29.33;16.15;;;3.20;98.80;;;;;;5033240;28;20061;-73
2022/12/04 10:51:38;;;;;;;33.47;17.00;;;3.30;98.90;;;;;;5032997;28;20034;-74
2022/12/04 10:54:39;;;;;;;30.92;16.55;;;3.40;98.80;;;;;;5015624;28;20076;-73
2022/12/04 10:57:07;;;;;;;26.42;15.32;;;3.40;98.80;;;;;;5016273;28;20077;-74
2022/12/04 10:59:37;;;;;;;29.45;15.10;;;3.50;98.80;;;;;;5033692;28;20446;-73
2022/12/04 11:02:16;;;;;;;28.40;15.80;;;3.60;98.70;;;;;;5033177;28;20030;-73
2022/12/04 11:04:42;;;;;;;33.60;16.08;;;3.70;98.40;;;;;;5032848;28;20112;-73
2022/12/04 11:07:29;;;;;;;25.88;15.60;;;3.70;98.10;;;;;;5033281;28;20212;-74
2022/12/04 11:10:03;;;;;;;30.40;16.50;;;3.70;98.20;;;;;;5033306;28;20033;-75
2022/12/04 11:12:30;;;;;;;28.02;15.45;;;3.60;98.10;;;;;;5033509;28;20121;-79
2022/12/04 11:15:05;;;;;;;28.13;15.57;;;3.50;98.10;;;;;;5015696;28;20030;-77
2022/12/04 11:17:31;;;;;;;27.25;15.57;;;3.40;98.40;;;;;;5032703;28;20034;-73
2022/12/04 11:20:25;;;;;;;27.40;15.88;;;3.40;98.40;;;;;;5031391;28;20040;-73
2022/12/04 11:22:59;;;;;;;29.98;16.38;;;3.40;98.60;;;;;;5030939;28;20048;-75
2022/12/04 11:25:42;;;;;;;28.80;15.65;;;3.30;98.60;;;;;;5033079;28;20030;-73
2022/12/04 11:28:16;;;;;;;28.00;15.88;;;3.40;98.70;;;;;;5014794;28;20192;-75
2022/12/04 11:30:48;;;;;;;30.73;15.35;;;3.40;98.60;;;;;;5032875;28;20034;-73
2022/12/04 11:33:24;;;;;;;30.15;16.13;;;3.40;98.70;;;;;;5033175;28;20426;-74
2022/12/04 11:35:54;;;;;;;26.70;15.10;;;3.30;98.70;;;;;;5035485;28;20343;-73
2022/12/04 11:38:24;;;;;;;26.60;15.85;;;3.30;99.10;;;;;;5036349;28;20124;-73
2022/12/04 11:40:53;;;;;;;26.88;14.85;;;3.50;98.80;;;;;;5036510;28;20033;-73
2022/12/04 11:43:19;;;;;;;28.52;15.88;;;3.50;98.60;;;;;;5019364;28;20029;-74
2022/12/04 11:46:05;;;;;;;24.23;13.85;;;3.70;98.50;;;;;;5036889;28;20064;-74
2022/12/04 11:48:41;;;;;;;28.55;15.25;;;3.80;98.40;;;;;;5018962;28;20029;-74
2022/12/04 11:51:12;;;;;;;27.08;15.57;;;3.90;98.40;;;;;;5036586;28;20026;-74
2022/12/04 11:54:14;;;;;;;26.00;15.00;;;4.00;97.90;;;;;;5035931;28;20053;-74
2022/12/04 11:56:44;;;;;;;26.60;14.95;;;4.00;97.90;;;;;;5036095;28;20040;-74
2022/12/04 11:59:37;;;;;;;28.98;16.42;;;4.00;97.80;;;;;;5036147;28;20061;-74
2022/12/04 12:02:40;;;;;;;31.58;16.20;;;4.00;97.80;;;;;;5036301;28;20033;-73
2022/12/04 12:05:33;;;;;;;25.13;14.45;;;3.90;97.70;;;;;;5036073;28;20021;-75
2022/12/04 12:08:08;;;;;;;27.95;15.55;;;3.90;97.80;;;;;;5035682;28;20497;-75
2022/12/04 12:10:48;;;;;;;24.98;14.57;;;3.80;97.80;;;;;;5037969;28;20029;-81
2022/12/04 12:13:20;;;;;;;27.30;15.45;;;3.80;98.00;;;;;;5036246;28;20033;-75
2022/12/04 12:16:06;;;;;;;24.20;14.30;;;3.80;97.80;;;;;;5035640;28;20033;-73
2022/12/04 12:18:52;;;;;;;28.00;15.88;;;3.70;98.00;;;;;;5035864;28;20041;-73
2022/12/04 12:21:45;;;;;;;25.33;15.43;;;3.80;98.10;;;;;;5018889;28;20021;-72
2022/12/04 12:24:24;;;;;;;21.45;12.50;;;4.00;98.00;;;;;;5036401;28;20025;-73
2022/12/04 12:27:24;;;;;;;25.40;15.40;;;3.90;98.00;;;;;;5035962;28;20104;-73
2022/12/04 12:30:05;;;;;;;27.10;15.48;;;4.00;97.80;;;;;;5035952;28;20029;-73
2022/12/04 12:32:57;;;;;;;25.85;15.32;;;3.90;97.80;;;;;;5017525;28;20029;-72
2022/12/04 12:35:32;;;;;;;25.95;15.95;;;4.00;98.10;;;;;;5034218;28;20034;-73
2022/12/04 12:38:05;;;;;;;27.67;15.52;;;4.00;98.10;;;;;;5035146;28;20065;-73
2022/12/04 12:40:38;;;;;;;;;;;4.00;97.80;;;;;;5018070;28;20033;-72
2022/12/04 12:43:12;;;;;;;31.48;15.30;;;3.90;98.00;;;;;;5017537;28;19905;-73
2022/12/04 12:45:57;;;;;;;26.60;14.20;;;3.80;98.20;;;;;;5034713;28;20036;-73
2022/12/04 12:48:25;;;;;;;25.02;13.73;;;3.80;98.20;;;;;;5034817;28;20558;-73
2022/12/04 12:51:13;;;;;;;24.40;15.10;;;3.70;98.50;;;;;;5035392;28;20037;-74
2022/12/04 12:53:43;;;;;;;24.83;14.27;;;3.70;98.70;;;;;;5017422;28;20049;-74
2022/12/04 12:56:10;;;;;;;23.05;14.32;;;3.80;98.50;;;;;;5035417;28;20029;-74
2022/12/04 12:58:38;;;;;;;26.55;15.38;;;3.80;98.50;;;;;;5035055;28;20075;-74
2022/12/04 13:01:22;;;;;;;24.75;14.35;;;4.00;98.60;;;;;;5034009;28;20029;-74
2022/12/04 13:04:02;;;;;;;25.92;15.10;;;4.10;98.20;;;;;;5034525;28;20026;-74
2022/12/04 13:06:35;;;;;;;23.77;14.68;;;4.10;97.90;;;;;;5035078;28;20037;-73
2022/12/04 13:09:24;;;;;;;26.17;14.90;;;4.10;98.00;;;;;;5034950;28;20054;-74
2022/12/04 13:11:52;;;;;;;24.10;13.40;;;4.10;97.80;;;;;;5034103;28;20069;-73
2022/12/04 13:14:18;;;;;;;25.85;13.75;;;4.00;98.00;;;;;;5034387;28;20083;-74
2022/12/04 13:16:54;;;;;;;25.17;14.25;;;4.00;98.00;;;;;;5033849;28;20041;-75